Lathrop Wells, Nevada
Current Conditions -  °F | °C
As of 11:52 PM on Saturday 25 Oct 2014 (Local Time) from KDRA Reporting Station
Clear Clear  
Wind Chill: 68°   Ceiling: Unl
Heat Index: 68°   Visibility: 10mi
Dew Point: 37°   Wind: 8mph
Humidity: 32%   Direction: 140°SE
Pressure: 29.97"   Gusts: NA
Location:  37.1785°N, 116.488°W
Report Text: KDRA 260652Z AUTO 14007KT 10SM CLR 20/03 A2997 RMK AO2 PK WND 20029/0622 SLP107 T02000028
Loading
Personal Weather Stations






























Interactive Weather Map
Tropical Storm Tracking
New forecast layout! Learn more

10-Day Weather Forecast

Advertisements
Track Severe Weather on mobile